Time;durP1;ratioP1;P1;durP2;ratioP2;P2;SDS_P1;SDS_P2;PMS_P1;PMS_P2;Temp;Humidity;BMP_temperature;BMP_pressure;BME280_temperature;BME280_humidity;BME280_pressure;Samples;Min_cycle;Max_cycle;Signal;HPM_P1;HPM_P2
2021/09/16 00:01:45;;;;;;;16.88;12.82;;;;;;;;;;6184885;23;20008;-69
2021/09/16 00:04:31;;;;;;;19.30;13.55;;;;;;;;;;6186470;23;20016;-69
2021/09/16 00:07:00;;;;;;;17.42;13.32;;;;;;;;;;6186080;23;20005;-69
2021/09/16 00:09:31;;;;;;;18.50;13.23;;;;;;;;;;6186845;23;20005;-69
2021/09/16 00:12:09;;;;;;;;;;;;;;;;;;6187450;23;20012;-69
2021/09/16 00:14:41;;;;;;;16.92;13.40;;;;;;;;;;6186238;23;19904;-69
2021/09/16 00:17:12;;;;;;;18.05;13.48;;;;;;;;;;6186454;23;20005;-69
2021/09/16 00:19:38;;;;;;;20.05;13.32;;;;;;;;;;6186999;23;20016;-68
2021/09/16 00:22:10;;;;;;;17.85;13.25;;;;;;;;;;6186530;23;20001;-69
2021/09/16 00:24:44;;;;;;;17.52;13.55;;;;;;;;;;6186758;23;20008;-68
2021/09/16 00:27:09;;;;;;;17.80;13.45;;;;;;;;;;6186931;23;20429;-69
2021/09/16 00:29:54;;;;;;;19.70;13.80;;;;;;;;;;6186962;23;20072;-68
2021/09/16 00:32:20;;;;;;;18.27;12.65;;;;;;;;;;6186295;23;20005;-68
2021/09/16 00:34:45;;;;;;;16.02;13.13;;;;;;;;;;6186823;23;20013;-68
2021/09/16 00:37:17;;;;;;;18.90;13.80;;;;;;;;;;6186671;23;20005;-68
2021/09/16 00:40:07;;;;;;;15.90;12.55;;;;;;;;;;6186882;23;20012;-69
2021/09/16 00:42:33;;;;;;;17.08;12.85;;;;;;;;;;6186108;23;20015;-69
2021/09/16 00:45:26;;;;;;;16.60;13.40;;;;;;;;;;6186560;23;19993;-69
2021/09/16 00:47:55;;;;;;;15.82;12.27;;;;;;;;;;6186676;23;20421;-69
2021/09/16 00:50:32;;;;;;;18.63;12.68;;;;;;;;;;6185904;23;20025;-69
2021/09/16 00:53:09;;;;;;;16.25;13.07;;;;;;;;;;6186555;23;20009;-69
2021/09/16 00:55:49;;;;;;;16.25;12.50;;;;;;;;;;6186294;23;20064;-69
2021/09/16 00:58:26;;;;;;;16.10;12.65;;;;;;;;;;6186407;23;20087;-69
2021/09/16 01:00:55;;;;;;;19.80;13.88;;;;;;;;;;6160219;23;20085;-69
2021/09/16 01:03:35;;;;;;;17.20;12.70;;;;;;;;;;6186363;23;20007;-69
2021/09/16 01:06:07;;;;;;;;;;;;;;;;;;6186647;23;20005;-69
2021/09/16 01:08:34;;;;;;;18.35;12.85;;;;;;;;;;6184878;23;19932;-69
2021/09/16 01:11:01;;;;;;;17.35;13.20;;;;;;;;;;6186344;23;20317;-69
2021/09/16 01:13:36;;;;;;;17.67;12.68;;;;;;;;;;6186385;23;20025;-69
2021/09/16 01:16:08;;;;;;;19.60;13.90;;;;;;;;;;6186442;23;20055;-69
2021/09/16 01:18:33;;;;;;;16.63;12.60;;;;;;;;;;6185921;23;20055;-69
2021/09/16 01:20:59;;;;;;;16.45;12.93;;;;;;;;;;6185974;23;20349;-69
2021/09/16 01:23:30;;;;;;;16.45;13.32;;;;;;;;;;6186062;23;20008;-69
2021/09/16 01:26:05;;;;;;;16.40;12.55;;;;;;;;;;6185696;23;20002;-69
2021/09/16 01:28:30;;;;;;;17.42;12.60;;;;;;;;;;6186449;23;20009;-68
2021/09/16 01:31:08;;;;;;;18.63;13.63;;;;;;;;;;6185864;23;19997;-68
2021/09/16 01:33:34;;;;;;;19.92;13.23;;;;;;;;;;6185042;23;20013;-68
2021/09/16 01:39:43;;;;;;;16.05;12.50;;;;;;;;;;6186460;23;20051;-68
2021/09/16 01:42:11;;;;;;;18.85;12.93;;;;;;;;;;6185862;23;20109;-68
2021/09/16 01:44:36;;;;;;;15.07;12.68;;;;;;;;;;6185727;23;20080;-69
2021/09/16 01:47:20;;;;;;;16.92;13.05;;;;;;;;;;6186503;23;20341;-69
2021/09/16 01:49:48;;;;;;;15.57;12.25;;;;;;;;;;6185989;23;20001;-69
2021/09/16 01:52:19;;;;;;;16.90;11.90;;;;;;;;;;6186129;23;20035;-69
2021/09/16 01:54:49;;;;;;;16.10;13.23;;;;;;;;;;6186318;23;20084;-69
2021/09/16 01:57:20;;;;;;;15.55;12.05;;;;;;;;;;6186443;23;20033;-69
2021/09/16 01:59:49;;;;;;;15.73;12.65;;;;;;;;;;6185962;23;20321;-70
2021/09/16 02:02:17;;;;;;;17.05;12.43;;;;;;;;;;6184112;23;20001;-69
2021/09/16 02:04:59;;;;;;;15.63;12.40;;;;;;;;;;6186107;23;20088;-70
2021/09/16 02:07:37;;;;;;;19.67;13.65;;;;;;;;;;6185789;23;20480;-70
2021/09/16 02:10:10;;;;;;;15.57;12.85;;;;;;;;;;6186213;23;20303;-69
2021/09/16 02:12:38;;;;;;;17.73;12.90;;;;;;;;;;6185608;23;20430;-70
2021/09/16 02:18:01;;;;;;;14.27;12.02;;;;;;;;;;6184009;23;20501;-70
2021/09/16 02:20:27;;;;;;;18.80;12.60;;;;;;;;;;6185415;23;19997;-69
2021/09/16 02:23:06;;;;;;;14.82;12.05;;;;;;;;;;6185668;23;20036;-69
2021/09/16 02:25:36;;;;;;;16.48;12.18;;;;;;;;;;6185613;23;20090;-69
2021/09/16 02:28:01;;;;;;;17.77;12.15;;;;;;;;;;6186118;23;20032;-69
2021/09/16 02:30:27;;;;;;;13.93;12.15;;;;;;;;;;6187677;23;20012;-69
2021/09/16 02:32:53;;;;;;;18.42;12.60;;;;;;;;;;6185495;23;20017;-69
2021/09/16 02:35:18;;;;;;;15.18;11.98;;;;;;;;;;6187678;23;20036;-69
2021/09/16 02:37:44;;;;;;;16.92;12.52;;;;;;;;;;6187676;23;20016;-69
2021/09/16 02:40:10;;;;;;;16.83;11.98;;;;;;;;;;6187542;23;20013;-69
2021/09/16 02:42:36;;;;;;;14.73;11.77;;;;;;;;;;6187437;23;20001;-69
2021/09/16 02:45:04;;;;;;;14.82;11.82;;;;;;;;;;6187470;23;20001;-69
2021/09/16 02:47:30;;;;;;;13.27;11.82;;;;;;;;;;6187420;23;20021;-70
2021/09/16 02:49:56;;;;;;;14.25;12.23;;;;;;;;;;6187552;23;20005;-69
2021/09/16 02:52:21;;;;;;;14.68;12.50;;;;;;;;;;6187428;23;20008;-69
2021/09/16 02:54:47;;;;;;;15.00;12.18;;;;;;;;;;6185379;23;20096;-69
2021/09/16 02:57:12;;;;;;;17.38;13.25;;;;;;;;;;6187256;23;19997;-70
2021/09/16 02:59:38;;;;;;;15.43;12.30;;;;;;;;;;6187171;23;20031;-69
2021/09/16 03:02:03;;;;;;;16.75;12.23;;;;;;;;;;6187515;23;20066;-69
2021/09/16 03:04:29;;;;;;;17.35;12.82;;;;;;;;;;6187257;23;20001;-68
2021/09/16 03:06:54;;;;;;;14.77;11.82;;;;;;;;;;6187143;23;20000;-69
2021/09/16 03:09:21;;;;;;;15.88;11.70;;;;;;;;;;6185234;23;20005;-69
2021/09/16 03:11:47;;;;;;;14.48;11.63;;;;;;;;;;6186977;23;20004;-69
2021/09/16 03:14:12;;;;;;;16.42;12.57;;;;;;;;;;6187335;23;20005;-68
2021/09/16 03:16:38;;;;;;;14.23;12.15;;;;;;;;;;6187141;23;20004;-68
2021/09/16 03:19:03;;;;;;;15.13;11.85;;;;;;;;;;6185403;23;20037;-69
2021/09/16 03:21:29;;;;;;;15.00;12.13;;;;;;;;;;6186663;23;20005;-69
2021/09/16 03:23:54;;;;;;;15.23;11.95;;;;;;;;;;6186971;23;20012;-69
2021/09/16 03:26:20;;;;;;;14.93;12.15;;;;;;;;;;6186876;23;20052;-69
2021/09/16 03:28:45;;;;;;;13.55;11.50;;;;;;;;;;6186886;23;20091;-69
2021/09/16 03:31:11;;;;;;;18.05;12.52;;;;;;;;;;6186933;23;20001;-69
2021/09/16 03:33:36;;;;;;;14.90;11.73;;;;;;;;;;6191609;23;20017;-69
2021/09/16 03:36:02;;;;;;;16.92;11.63;;;;;;;;;;6186775;23;20013;-68
2021/09/16 03:38:28;;;;;;;14.98;11.80;;;;;;;;;;6187131;23;20001;-69
2021/09/16 03:40:53;;;;;;;18.08;11.88;;;;;;;;;;6186736;23;20004;-69
2021/09/16 03:43:19;;;;;;;17.55;11.95;;;;;;;;;;6186952;23;20009;-69
2021/09/16 03:45:44;;;;;;;14.75;11.90;;;;;;;;;;6186761;23;19993;-69
2021/09/16 03:48:10;;;;;;;14.75;12.52;;;;;;;;;;6186760;23;20009;-69
2021/09/16 03:50:36;;;;;;;16.58;12.68;;;;;;;;;;6186799;23;19997;-62
2021/09/16 03:53:01;;;;;;;16.30;12.70;;;;;;;;;;6186724;23;20066;-62
2021/09/16 03:55:27;;;;;;;18.27;12.23;;;;;;;;;;6186419;23;20366;-62
2021/09/16 03:57:53;;;;;;;15.27;11.20;;;;;;;;;;6186639;23;20015;-69
2021/09/16 04:00:18;;;;;;;13.60;11.77;;;;;;;;;;6186407;23;19997;-68
2021/09/16 04:02:44;;;;;;;17.65;12.25;;;;;;;;;;6185201;23;20015;-68
2021/09/16 04:05:09;;;;;;;18.73;11.50;;;;;;;;;;6186550;23;20000;-68
2021/09/16 04:07:35;;;;;;;13.98;11.52;;;;;;;;;;6186306;23;20005;-68
2021/09/16 04:10:00;;;;;;;13.85;11.48;;;;;;;;;;6186103;23;20005;-68
2021/09/16 04:12:26;;;;;;;14.82;11.80;;;;;;;;;;6186230;23;20409;-68
2021/09/16 04:14:51;;;;;;;14.35;12.00;;;;;;;;;;6186243;23;20001;-69
2021/09/16 04:17:19;;;;;;;15.90;11.82;;;;;;;;;;6186180;23;20009;-68
2021/09/16 04:19:45;;;;;;;16.55;11.73;;;;;;;;;;6186271;23;19997;-68
2021/09/16 04:22:10;;;;;;;16.95;12.40;;;;;;;;;;6186259;23;20127;-68
2021/09/16 04:24:36;;;;;;;16.88;12.75;;;;;;;;;;6186439;23;19993;-69
2021/09/16 04:27:01;;;;;;;15.82;12.05;;;;;;;;;;6185448;23;20440;-69
2021/09/16 04:29:27;;;;;;;17.15;12.35;;;;;;;;;;6185715;23;20001;-69
2021/09/16 04:31:52;;;;;;;14.55;11.25;;;;;;;;;;6186391;23;20059;-69
2021/09/16 04:34:18;;;;;;;13.70;11.15;;;;;;;;;;6185476;23;20016;-68
2021/09/16 04:36:43;;;;;;;13.25;11.15;;;;;;;;;;6185835;23;20020;-69
2021/09/16 04:39:09;;;;;;;13.13;9.88;;;;;;;;;;6185301;23;20005;-69
2021/09/16 04:41:34;;;;;;;11.18;9.88;;;;;;;;;;6185921;23;20444;-69
2021/09/16 04:44:00;;;;;;;13.18;10.82;;;;;;;;;;6186199;23;20188;-69
2021/09/16 04:46:26;;;;;;;14.05;10.80;;;;;;;;;;6186016;23;20083;-69
2021/09/16 04:48:51;;;;;;;12.93;10.50;;;;;;;;;;6185844;23;19997;-69
2021/09/16 04:51:17;;;;;;;14.57;11.00;;;;;;;;;;6185902;23;20013;-69
2021/09/16 04:53:42;;;;;;;13.40;11.30;;;;;;;;;;6186255;23;20432;-69
2021/09/16 04:56:08;;;;;;;13.85;10.70;;;;;;;;;;6185994;23;20337;-69
2021/09/16 04:58:33;;;;;;;17.08;11.82;;;;;;;;;;6185877;23;20025;-69
2021/09/16 05:00:59;;;;;;;13.27;10.95;;;;;;;;;;6185872;23;20004;-69
2021/09/16 05:03:25;;;;;;;17.92;12.85;;;;;;;;;;6184296;23;19997;-69
2021/09/16 05:05:50;;;;;;;16.70;11.52;;;;;;;;;;6186225;23;20013;-68
2021/09/16 05:08:16;;;;;;;15.70;11.70;;;;;;;;;;6186271;23;19997;-69
2021/09/16 05:10:44;;;;;;;17.60;12.13;;;;;;;;;;6184518;23;20008;-69
2021/09/16 05:13:10;;;;;;;14.35;11.48;;;;;;;;;;6185941;23;20440;-69
2021/09/16 05:19:10;;;;;;;12.98;10.73;;;;;;;;;;6186193;23;20096;-68
2021/09/16 05:21:36;;;;;;;14.48;11.05;;;;;;;;;;6185670;23;20013;-69
2021/09/16 05:24:02;;;;;;;12.73;11.40;;;;;;;;;;6183662;23;20005;-69
2021/09/16 05:26:28;;;;;;;12.60;10.68;;;;;;;;;;6185346;23;20033;-69
2021/09/16 05:28:54;;;;;;;14.20;11.05;;;;;;;;;;6185530;23;20002;-69
2021/09/16 05:31:20;;;;;;;14.07;11.23;;;;;;;;;;6185577;23;20452;-65
2021/09/16 05:33:45;;;;;;;12.15;10.90;;;;;;;;;;6185276;23;20001;-69
2021/09/16 05:36:11;;;;;;;15.80;10.27;;;;;;;;;;6185524;23;20013;-69
2021/09/16 05:38:36;;;;;;;12.57;10.20;;;;;;;;;;6185560;23;20032;-69
2021/09/16 05:41:02;;;;;;;15.70;11.95;;;;;;;;;;6185380;23;20067;-69
2021/09/16 05:43:28;;;;;;;15.40;12.27;;;;;;;;;;6185538;23;20421;-69
2021/09/16 05:45:53;;;;;;;16.33;11.95;;;;;;;;;;6185501;23;20012;-69
2021/09/16 05:48:21;;;;;;;17.50;11.35;;;;;;;;;;6185406;23;20326;-69
2021/09/16 05:50:47;;;;;;;15.60;11.57;;;;;;;;;;6183729;23;20333;-69
2021/09/16 05:53:12;;;;;;;13.35;11.77;;;;;;;;;;6185447;23;20024;-69
2021/09/16 05:55:39;;;;;;;13.05;11.63;;;;;;;;;;6185497;23;20032;-69
2021/09/16 05:58:05;;;;;;;13.20;11.60;;;;;;;;;;6185360;23;20005;-69
2021/09/16 06:00:31;;;;;;;15.63;11.95;;;;;;;;;;6185505;23;20373;-69
2021/09/16 06:02:56;;;;;;;15.30;11.50;;;;;;;;;;6185392;23;19997;-69
2021/09/16 06:05:22;;;;;;;18.20;11.38;;;;;;;;;;6187336;23;20441;-69
2021/09/16 06:07:47;;;;;;;16.55;11.45;;;;;;;;;;6187497;23;20305;-69
2021/09/16 06:10:13;;;;;;;18.52;13.00;;;;;;;;;;6185940;23;20009;-69
2021/09/16 06:12:39;;;;;;;18.85;12.90;;;;;;;;;;6187248;23;19997;-68
2021/09/16 06:15:05;;;;;;;15.38;12.32;;;;;;;;;;6187203;23;20084;-69
2021/09/16 06:17:30;;;;;;;16.38;12.93;;;;;;;;;;6187184;23;20029;-69
2021/09/16 06:19:56;;;;;;;21.70;13.55;;;;;;;;;;6186009;23;20020;-69
2021/09/16 06:22:21;;;;;;;20.25;14.60;;;;;;;;;;6187122;23;20503;-69
2021/09/16 06:24:47;;;;;;;15.93;13.77;;;;;;;;;;6187240;23;20005;-69
2021/09/16 06:27:12;;;;;;;14.70;11.85;;;;;;;;;;6187212;23;20003;-67
2021/09/16 06:29:38;;;;;;;25.55;13.50;;;;;;;;;;6185518;23;20012;-68
2021/09/16 06:32:04;;;;;;;17.75;12.30;;;;;;;;;;6187055;23;20333;-68
2021/09/16 06:34:30;;;;;;;17.10;13.20;;;;;;;;;;6186583;23;20009;-68
2021/09/16 06:36:57;;;;;;;17.67;13.32;;;;;;;;;;6186749;23;20020;-68
2021/09/16 06:39:25;;;;;;;19.30;13.07;;;;;;;;;;6187193;23;20033;-69
2021/09/16 06:41:51;;;;;;;18.48;13.10;;;;;;;;;;6187006;23;20459;-69
2021/09/16 06:44:16;;;;;;;16.23;12.57;;;;;;;;;;6187079;23;20089;-68
2021/09/16 06:46:42;;;;;;;14.90;12.90;;;;;;;;;;6187569;23;19993;-69
2021/09/16 06:49:07;;;;;;;20.65;12.23;;;;;;;;;;6187258;23;20037;-69
2021/09/16 06:51:33;;;;;;;14.13;11.80;;;;;;;;;;6185820;23;20011;-69
2021/09/16 06:53:58;;;;;;;15.73;11.35;;;;;;;;;;6186092;23;20333;-69
2021/09/16 06:56:25;;;;;;;14.68;11.20;;;;;;;;;;6186063;23;20005;-69
2021/09/16 06:58:50;;;;;;;13.60;10.90;;;;;;;;;;6186003;23;20620;-69
2021/09/16 07:01:16;;;;;;;15.30;11.55;;;;;;;;;;6185848;23;20090;-69
2021/09/16 07:03:41;;;;;;;13.70;11.35;;;;;;;;;;6186024;23;20075;-69
2021/09/16 07:06:07;;;;;;;18.58;12.18;;;;;;;;;;6186382;23;20019;-69
2021/09/16 07:08:32;;;;;;;13.27;11.75;;;;;;;;;;6185202;23;20009;-69
2021/09/16 07:10:58;;;;;;;14.38;12.15;;;;;;;;;;6186714;23;19997;-68
2021/09/16 07:13:23;;;;;;;14.15;11.05;;;;;;;;;;6186558;23;20005;-69
2021/09/16 07:15:49;;;;;;;15.60;12.07;;;;;;;;;;6186735;23;20028;-69
2021/09/16 07:18:14;;;;;;;14.90;12.23;;;;;;;;;;6186651;23;20067;-69
2021/09/16 07:20:40;;;;;;;16.00;12.40;;;;;;;;;;6186692;23;20001;-69
2021/09/16 07:23:07;;;;;;;17.48;11.52;;;;;;;;;;6186590;23;20429;-69
2021/09/16 07:25:33;;;;;;;13.40;11.95;;;;;;;;;;6186696;23;20005;-69
2021/09/16 07:27:58;;;;;;;19.42;12.10;;;;;;;;;;6185173;23;20080;-69
2021/09/16 07:30:24;;;;;;;17.10;11.80;;;;;;;;;;6185024;23;19993;-69
2021/09/16 07:32:50;;;;;;;15.07;11.57;;;;;;;;;;6186634;23;20012;-70
2021/09/16 07:35:15;;;;;;;13.18;10.90;;;;;;;;;;6185977;23;20392;-68
2021/09/16 07:37:41;;;;;;;17.00;11.90;;;;;;;;;;6186595;23;20040;-69
2021/09/16 07:40:06;;;;;;;13.38;11.95;;;;;;;;;;6186566;23;20004;-69
2021/09/16 07:42:36;;;;;;;13.13;10.95;;;;;;;;;;6186410;23;20004;-69
2021/09/16 07:45:02;;;;;;;16.83;12.52;;;;;;;;;;6186633;23;20105;-69
2021/09/16 07:47:28;;;;;;;16.98;12.52;;;;;;;;;;6186492;23;20005;-69
2021/09/16 07:49:53;;;;;;;14.45;11.63;;;;;;;;;;6184975;23;20012;-68
2021/09/16 07:52:19;;;;;;;15.88;12.77;;;;;;;;;;6184863;23;20009;-69
2021/09/16 07:54:45;;;;;;;18.90;12.70;;;;;;;;;;6186443;23;20001;-69
2021/09/16 07:57:10;;;;;;;18.65;13.18;;;;;;;;;;6186220;23;20020;-69
2021/09/16 07:59:36;;;;;;;17.80;13.15;;;;;;;;;;6186236;23;20052;-69
2021/09/16 08:02:01;;;;;;;16.85;12.15;;;;;;;;;;6184827;23;20009;-69
2021/09/16 08:04:27;;;;;;;17.55;12.43;;;;;;;;;;6186515;23;19993;-68
2021/09/16 08:06:52;;;;;;;18.42;13.55;;;;;;;;;;6185926;23;20005;-68
2021/09/16 08:09:18;;;;;;;15.70;12.02;;;;;;;;;;6185014;23;20007;-68
2021/09/16 08:11:43;;;;;;;18.75;13.00;;;;;;;;;;6186536;23;20005;-67
2021/09/16 08:14:09;;;;;;;19.30;12.90;;;;;;;;;;6186385;23;20004;-68
2021/09/16 08:16:36;;;;;;;22.90;14.05;;;;;;;;;;6185901;23;20009;-68
2021/09/16 08:19:02;;;;;;;17.40;12.98;;;;;;;;;;6186092;23;20084;-68
2021/09/16 08:21:28;;;;;;;19.45;12.82;;;;;;;;;;6185739;23;20088;-68
2021/09/16 08:23:53;;;;;;;16.55;12.77;;;;;;;;;;6186002;23;20317;-68
2021/09/16 08:26:19;;;;;;;16.75;12.25;;;;;;;;;;6185540;23;20012;-68
2021/09/16 08:28:51;;;;;;;16.60;12.48;;;;;;;;;;6186004;23;20033;-69
2021/09/16 08:31:17;;;;;;;17.40;12.82;;;;;;;;;;6185968;23;20005;-69
2021/09/16 08:33:42;;;;;;;17.42;12.75;;;;;;;;;;6185783;23;20439;-69
2021/09/16 08:36:13;;;;;;;19.45;13.10;;;;;;;;;;6186019;23;20382;-69
2021/09/16 08:38:38;;;;;;;;;;;;;;;;;;6186490;23;20016;-69
2021/09/16 08:41:04;;;;;;;20.17;13.88;;;;;;;;;;6185816;23;19900;-69
2021/09/16 08:43:31;;;;;;;21.48;13.60;;;;;;;;;;6185859;23;20423;-69
2021/09/16 08:45:58;;;;;;;21.35;14.00;;;;;;;;;;6185827;23;20040;-69
2021/09/16 08:48:23;;;;;;;22.33;15.25;;;;;;;;;;6185943;23;20433;-69
2021/09/16 08:50:49;;;;;;;22.50;15.15;;;;;;;;;;6186149;23;20001;-69
2021/09/16 08:53:19;;;;;;;23.42;15.65;;;;;;;;;;6185953;23;20012;-69
2021/09/16 08:55:45;;;;;;;22.90;15.50;;;;;;;;;;6186092;23;20005;-69
2021/09/16 08:58:11;;;;;;;20.05;14.73;;;;;;;;;;6185844;23;20012;-68
2021/09/16 09:00:37;;;;;;;23.08;14.82;;;;;;;;;;6185464;23;20017;-69
2021/09/16 09:03:02;;;;;;;22.85;15.30;;;;;;;;;;6186032;23;20001;-69
2021/09/16 09:05:29;;;;;;;21.05;15.63;;;;;;;;;;6186050;23;20023;-69
2021/09/16 09:07:56;;;;;;;23.85;15.98;;;;;;;;;;6186195;23;19996;-69
2021/09/16 09:10:39;;;;;;;23.80;15.73;;;;;;;;;;6185855;23;20454;-69
2021/09/16 09:13:06;;;;;;;20.23;14.45;;;;;;;;;;6185582;23;20005;-68
2021/09/16 09:15:31;;;;;;;19.95;14.63;;;;;;;;;;6185622;23;20005;-67
2021/09/16 09:18:08;;;;;;;21.90;15.13;;;;;;;;;;6185659;23;20337;-67
2021/09/16 09:20:51;;;;;;;22.23;14.38;;;;;;;;;;6184280;23;20005;-67
2021/09/16 09:23:20;;;;;;;27.02;14.48;;;;;;;;;;6185548;23;20080;-67
2021/09/16 09:25:46;;;;;;;18.83;14.07;;;;;;;;;;6185530;23;20008;-67
2021/09/16 09:28:24;;;;;;;21.48;15.20;;;;;;;;;;6185687;23;20001;-68
2021/09/16 09:30:49;;;;;;;21.45;14.52;;;;;;;;;;6185842;23;20001;-68
2021/09/16 09:33:15;;;;;;;23.20;15.13;;;;;;;;;;6185467;23;20439;-68
2021/09/16 09:35:42;;;;;;;22.27;14.75;;;;;;;;;;6185375;23;20448;-69
2021/09/16 09:38:21;;;;;;;23.48;14.57;;;;;;;;;;6186390;23;20012;-66
2021/09/16 09:40:51;;;;;;;21.88;15.20;;;;;;;;;;6187522;23;20460;-67
2021/09/16 09:43:27;;;;;;;25.73;15.13;;;;;;;;;;6187485;23;20333;-68
2021/09/16 09:46:02;;;;;;;21.80;14.60;;;;;;;;;;6187523;23;20028;-67
2021/09/16 09:48:28;;;;;;;22.27;14.30;;;;;;;;;;6187523;23;20437;-67
2021/09/16 09:50:54;;;;;;;20.80;14.55;;;;;;;;;;6187480;23;20000;-68
2021/09/16 09:53:20;;;;;;;23.30;14.77;;;;;;;;;;6187576;23;20009;-68
2021/09/16 09:55:45;;;;;;;28.92;15.75;;;;;;;;;;6187004;23;20009;-68
2021/09/16 09:58:11;;;;;;;26.58;15.13;;;;;;;;;;6187298;23;20020;-67
2021/09/16 10:00:36;;;;;;;22.75;14.52;;;;;;;;;;6187332;23;20093;-68
2021/09/16 10:03:02;;;;;;;21.95;15.20;;;;;;;;;;6187350;23;20012;-68
2021/09/16 10:05:32;;;;;;;21.98;15.10;;;;;;;;;;6185800;23;20001;-67
2021/09/16 10:07:59;;;;;;;;;;;;;;;;;;6187739;23;20005;-66
2021/09/16 10:10:33;;;;;;;21.10;14.73;;;;;;;;;;6185783;23;19900;-67
2021/09/16 10:12:59;;;;;;;22.83;16.67;;;;;;;;;;6187474;23;20013;-67
2021/09/16 10:15:24;;;;;;;23.25;15.15;;;;;;;;;;6187632;23;20052;-67
2021/09/16 10:17:51;;;;;;;24.27;16.38;;;;;;;;;;6187206;23;20020;-68
2021/09/16 10:20:18;;;;;;;22.98;15.20;;;;;;;;;;6187069;23;20080;-68
2021/09/16 10:22:52;;;;;;;22.42;15.50;;;;;;;;;;6187193;23;20005;-67
2021/09/16 10:25:18;;;;;;;24.42;14.20;;;;;;;;;;6187265;23;20052;-67
2021/09/16 10:27:45;;;;;;;26.95;16.88;;;;;;;;;;6185558;23;20079;-67
2021/09/16 10:30:20;;;;;;;24.75;17.00;;;;;;;;;;6187046;23;20043;-68
2021/09/16 10:32:57;;;;;;;26.48;17.77;;;;;;;;;;6187119;23;20005;-68
2021/09/16 10:35:23;;;;;;;24.50;14.88;;;;;;;;;;6185100;23;20017;-68
2021/09/16 10:37:49;;;;;;;24.60;15.27;;;;;;;;;;6185710;23;20016;-68
2021/09/16 10:40:20;;;;;;;24.88;16.65;;;;;;;;;;6187192;23;20009;-68
2021/09/16 10:42:47;;;;;;;22.35;14.90;;;;;;;;;;6186904;23;20336;-68
2021/09/16 10:45:12;;;;;;;23.50;15.60;;;;;;;;;;6186927;23;20064;-68
2021/09/16 10:47:38;;;;;;;22.80;14.40;;;;;;;;;;6185682;23;20036;-68
2021/09/16 10:50:19;;;;;;;20.80;13.63;;;;;;;;;;6186229;23;19997;-68
2021/09/16 10:52:45;;;;;;;21.52;12.65;;;;;;;;;;6185408;23;20009;-68
2021/09/16 10:55:10;;;;;;;22.60;14.75;;;;;;;;;;6186924;23;20051;-68
2021/09/16 10:57:40;;;;;;;23.77;14.82;;;;;;;;;;6186766;23;20008;-68
2021/09/16 11:00:07;;;;;;;17.38;13.32;;;;;;;;;;6186847;23;20008;-68
2021/09/16 11:02:38;;;;;;;18.33;14.02;;;;;;;;;;6186789;23;20005;-68
2021/09/16 11:05:07;;;;;;;19.00;14.23;;;;;;;;;;6186804;23;20012;-68
2021/09/16 11:07:32;;;;;;;17.48;12.48;;;;;;;;;;6186832;23;20414;-68
2021/09/16 11:10:21;;;;;;;14.52;11.18;;;;;;;;;;6186427;23;20005;-68
2021/09/16 11:12:57;;;;;;;13.65;10.20;;;;;;;;;;6144836;23;20464;-68
2021/09/16 11:15:25;;;;;;;13.45;10.85;;;;;;;;;;6187138;23;20005;-68
2021/09/16 11:18:00;;;;;;;14.40;10.93;;;;;;;;;;6187098;23;20491;-68
2021/09/16 11:20:25;;;;;;;14.35;11.65;;;;;;;;;;6186796;23;20001;-68
2021/09/16 11:22:51;;;;;;;18.27;11.60;;;;;;;;;;6186419;23;20320;-68
2021/09/16 11:25:17;;;;;;;16.83;12.13;;;;;;;;;;6186509;23;20493;-68
2021/09/16 11:27:43;;;;;;;15.50;11.30;;;;;;;;;;6186542;23;20028;-67
2021/09/16 11:30:16;;;;;;;16.67;11.55;;;;;;;;;;6186581;23;20031;-68
2021/09/16 11:32:43;;;;;;;11.98;9.60;;;;;;;;;;6186524;23;20009;-68
2021/09/16 11:35:13;;;;;;;13.45;10.00;;;;;;;;;;6186031;23;20017;-68
2021/09/16 11:37:40;;;;;;;16.25;10.23;;;;;;;;;;6185877;23;20016;-68
2021/09/16 11:40:06;;;;;;;11.55;8.48;;;;;;;;;;6186620;23;20011;-68
2021/09/16 11:42:35;;;;;;;10.80;8.88;;;;;;;;;;6186411;23;20017;-68
2021/09/16 11:45:08;;;;;;;12.33;8.00;;;;;;;;;;6186685;23;20083;-68
2021/09/16 11:47:42;;;;;;;8.40;7.47;;;;;;;;;;6186721;23;20084;-67
2021/09/16 11:50:10;;;;;;;11.20;7.93;;;;;;;;;;6186752;23;20043;-68
2021/09/16 11:52:37;;;;;;;11.45;7.50;;;;;;;;;;6186378;23;20063;-68
2021/09/16 11:55:06;;;;;;;9.05;7.45;;;;;;;;;;6184783;23;20345;-68
2021/09/16 11:57:31;;;;;;;7.78;6.63;;;;;;;;;;6186158;23;20028;-68
2021/09/16 11:59:57;;;;;;;7.75;6.07;;;;;;;;;;6186426;23;20491;-68
2021/09/16 12:02:22;;;;;;;6.93;6.22;;;;;;;;;;6185773;23;19997;-68
2021/09/16 12:04:49;;;;;;;6.65;6.03;;;;;;;;;;6186187;23;20005;-69
2021/09/16 12:07:17;;;;;;;9.85;6.38;;;;;;;;;;6186176;23;20001;-68
2021/09/16 12:09:43;;;;;;;7.82;6.00;;;;;;;;;;6186167;23;20455;-68
2021/09/16 12:12:09;;;;;;;7.28;6.43;;;;;;;;;;6186100;23;19997;-69
2021/09/16 12:14:36;;;;;;;8.05;6.15;;;;;;;;;;6185993;23;20012;-68
2021/09/16 12:17:02;;;;;;;8.98;5.63;;;;;;;;;;6186049;23;20004;-68
2021/09/16 12:19:28;;;;;;;5.97;5.40;;;;;;;;;;6184324;23;20334;-68
2021/09/16 12:21:56;;;;;;;6.57;5.78;;;;;;;;;;6186074;23;19997;-68
2021/09/16 12:24:27;;;;;;;6.53;5.57;;;;;;;;;;6186199;23;20001;-68
2021/09/16 12:26:54;;;;;;;6.07;5.43;;;;;;;;;;6186104;23;20005;-68
2021/09/16 12:29:28;;;;;;;7.40;5.60;;;;;;;;;;6185944;23;20000;-68
2021/09/16 12:31:57;;;;;;;5.72;5.22;;;;;;;;;;6185926;23;20440;-68
2021/09/16 12:34:27;;;;;;;6.65;4.80;;;;;;;;;;6185511;23;20349;-68
2021/09/16 12:36:57;;;;;;;5.50;5.00;;;;;;;;;;6186120;23;20013;-67
2021/09/16 12:39:23;;;;;;;5.97;5.30;;;;;;;;;;6185507;23;20013;-67
2021/09/16 12:41:50;;;;;;;5.50;5.10;;;;;;;;;;6185769;23;20418;-68
2021/09/16 12:44:20;;;;;;;5.38;4.90;;;;;;;;;;6185858;23;20080;-68
2021/09/16 12:46:47;;;;;;;5.10;4.70;;;;;;;;;;6185845;23;20001;-68
2021/09/16 12:49:31;;;;;;;6.95;4.88;;;;;;;;;;6185919;23;20067;-68
2021/09/16 12:51:58;;;;;;;5.30;4.90;;;;;;;;;;6185808;23;20013;-68
2021/09/16 12:54:25;;;;;;;5.80;4.95;;;;;;;;;;6185727;23;20079;-68
2021/09/16 12:56:51;;;;;;;6.00;5.10;;;;;;;;;;6185740;23;20019;-68
2021/09/16 12:59:18;;;;;;;5.75;5.18;;;;;;;;;;6185865;23;20033;-68
2021/09/16 13:01:46;;;;;;;5.80;5.28;;;;;;;;;;6185806;23;20425;-68
2021/09/16 13:04:11;;;;;;;6.65;5.95;;;;;;;;;;6185604;23;19996;-67
2021/09/16 13:06:37;;;;;;;5.95;5.38;;;;;;;;;;6185569;23;20089;-68
2021/09/16 13:09:02;;;;;;;5.78;5.28;;;;;;;;;;6184248;23;20389;-69
2021/09/16 13:11:28;;;;;;;7.55;5.25;;;;;;;;;;6185814;23;20380;-68
2021/09/16 13:14:04;;;;;;;5.90;5.30;;;;;;;;;;6185386;23;20001;-67
2021/09/16 13:16:30;;;;;;;5.22;4.78;;;;;;;;;;6185526;23;20064;-68
2021/09/16 13:18:55;;;;;;;6.00;4.88;;;;;;;;;;6185602;23;20445;-68
2021/09/16 13:21:21;;;;;;;5.97;5.10;;;;;;;;;;6185345;23;20397;-68
2021/09/16 13:23:46;;;;;;;7.93;6.20;;;;;;;;;;6185678;23;20537;-67
2021/09/16 13:26:12;;;;;;;6.88;5.70;;;;;;;;;;6185683;23;20088;-68
2021/09/16 13:28:37;;;;;;;6.05;5.32;;;;;;;;;;6185511;23;19993;-67
2021/09/16 13:31:03;;;;;;;5.18;4.78;;;;;;;;;;6185529;23;20034;-67
2021/09/16 13:33:28;;;;;;;5.95;5.45;;;;;;;;;;6185291;23;20004;-67
2021/09/16 13:35:55;;;;;;;6.25;5.05;;;;;;;;;;6185194;23;20396;-68
2021/09/16 13:38:21;;;;;;;5.93;5.43;;;;;;;;;;6185423;23;20009;-67
2021/09/16 13:40:46;;;;;;;6.53;5.63;;;;;;;;;;6185724;23;19997;-63
2021/09/16 13:43:14;;;;;;;6.65;5.13;;;;;;;;;;6185451;23;20009;-68
2021/09/16 13:45:40;;;;;;;5.75;5.22;;;;;;;;;;6185612;23;20044;-67
2021/09/16 13:48:05;;;;;;;7.70;6.00;;;;;;;;;;6185516;23;20456;-68
2021/09/16 13:50:31;;;;;;;6.60;5.40;;;;;;;;;;6185696;23;20043;-69
2021/09/16 13:52:57;;;;;;;7.60;5.38;;;;;;;;;;6185617;23;20012;-68
2021/09/16 13:55:22;;;;;;;9.25;5.78;;;;;;;;;;6185849;23;20052;-67
2021/09/16 13:57:48;;;;;;;6.68;5.88;;;;;;;;;;6185110;23;20009;-68
2021/09/16 14:00:13;;;;;;;11.13;5.78;;;;;;;;;;6185503;23;20072;-68
2021/09/16 14:02:39;;;;;;;8.40;6.40;;;;;;;;;;6185151;23;20032;-68
2021/09/16 14:05:05;;;;;;;9.73;6.68;;;;;;;;;;6185004;23;20008;-68
2021/09/16 14:07:31;;;;;;;8.38;6.53;;;;;;;;;;6182706;23;20083;-68
2021/09/16 14:09:57;;;;;;;8.50;6.13;;;;;;;;;;6184346;23;19993;-68
2021/09/16 14:12:22;;;;;;;10.95;7.35;;;;;;;;;;6184878;23;20087;-68
2021/09/16 14:14:48;;;;;;;8.45;7.30;;;;;;;;;;6184145;23;19997;-68
2021/09/16 14:17:14;;;;;;;7.95;6.72;;;;;;;;;;6185425;23;20091;-68
2021/09/16 14:19:39;;;;;;;10.35;6.88;;;;;;;;;;6185382;23;19997;-68
2021/09/16 14:22:05;;;;;;;11.10;6.70;;;;;;;;;;6185193;23;20009;-67
2021/09/16 14:24:31;;;;;;;10.38;7.22;;;;;;;;;;6185464;23;20433;-68
2021/09/16 14:26:57;;;;;;;9.32;7.30;;;;;;;;;;6187298;23;20008;-68
2021/09/16 14:29:22;;;;;;;9.80;7.22;;;;;;;;;;6187105;23;20326;-68
2021/09/16 14:31:48;;;;;;;8.95;7.75;;;;;;;;;;6187131;23;20017;-68
2021/09/16 14:34:13;;;;;;;10.25;7.47;;;;;;;;;;6186747;23;19997;-67
2021/09/16 14:36:43;;;;;;;10.07;8.02;;;;;;;;;;6185633;23;20013;-68